Time;durP1;ratioP1;P1;durP2;ratioP2;P2;SDS_P1;SDS_P2;PMS_P1;PMS_P2;Temp;Humidity;BMP_temperature;BMP_pressure;BME280_temperature;BME280_humidity;BME280_pressure;Samples;Min_cycle;Max_cycle;Signal;HPM_P1;HPM_P2
2022/08/06 00:00:25;;;;;;;;;1.50;1.25;;;;;20.34;37.18;102111.31;5120952;27;45445;-59
2022/08/06 00:02:51;;;;;;;;;1.75;0.50;;;;;20.27;37.14;102110.34;5121049;27;45372;-60
2022/08/06 00:05:16;;;;;;;;;2.75;1.00;;;;;20.26;37.22;102109.50;5121070;27;45434;-57
2022/08/06 00:07:41;;;;;;;;;1.50;1.00;;;;;20.22;37.78;102121.69;5120645;27;45360;-60
2022/08/06 00:10:07;;;;;;;;;4.00;2.25;;;;;20.17;37.73;102127.63;5120853;27;45305;-60
2022/08/06 00:12:34;;;;;;;;;1.00;1.00;;;;;20.11;37.88;102122.94;5120881;27;45282;-60
2022/08/06 00:15:01;;;;;;;;;1.00;1.00;;;;;20.15;37.77;102129.66;5120723;27;45157;-58
2022/08/06 00:17:27;;;;;;;;;1.00;1.00;;;;;20.12;37.39;102124.59;5120523;27;46070;-60
2022/08/06 00:19:52;;;;;;;;;1.00;1.00;;;;;20.09;37.39;102119.53;5120581;27;45352;-58
2022/08/06 00:22:17;;;;;;;;;1.00;1.00;;;;;20.07;38.65;102128.88;5120823;27;45636;-60
2022/08/06 00:24:43;;;;;;;;;1.50;1.50;;;;;20.03;37.58;102128.38;5120719;27;45440;-60
2022/08/06 00:27:08;;;;;;;;;1.50;1.50;;;;;19.99;37.82;102118.09;5120501;27;46051;-57
2022/08/06 00:29:34;;;;;;;;;1.00;1.00;;;;;19.96;38.54;102123.84;5120749;27;45493;-59
2022/08/06 00:31:59;;;;;;;;;1.25;1.25;;;;;19.86;38.74;102102.44;5120573;27;45433;-57
2022/08/06 00:34:24;;;;;;;;;2.00;1.00;;;;;19.99;38.65;102115.38;5120452;27;45349;-58
2022/08/06 00:36:50;;;;;;;;;2.25;2.25;;;;;19.97;38.66;102118.25;5120038;27;46109;-59
2022/08/06 00:39:15;;;;;;;;;2.50;1.25;;;;;19.94;38.89;102111.34;5120111;27;45567;-58
2022/08/06 00:41:40;;;;;;;;;1.75;1.75;;;;;19.90;38.72;102117.28;5120392;27;45390;-58
2022/08/06 00:44:06;;;;;;;;;3.25;1.00;;;;;19.86;38.94;102124.88;5120475;27;45354;-55
2022/08/06 00:46:32;;;;;;;;;2.50;2.00;;;;;19.85;38.83;102125.06;5101646;27;47368;-58
2022/08/06 00:48:57;;;;;;;;;2.00;1.00;;;;;19.85;39.14;102128.59;5120097;27;45359;-59
2022/08/06 00:51:23;;;;;;;;;2.50;1.00;;;;;19.84;38.76;102128.75;5120294;27;45755;-58
2022/08/06 00:53:50;;;;;;;;;2.00;1.25;;;;;19.77;38.88;102119.69;5120359;27;45653;-58
2022/08/06 00:56:16;;;;;;;;;1.00;1.00;;;;;19.73;39.21;102119.19;5119532;27;46037;-57
2022/08/06 00:58:41;;;;;;;;;2.33;2.00;;;;;19.71;39.54;102125.78;5120151;27;45223;-57
2022/08/06 01:01:11;;;;;;;;;2.00;2.00;;;;;19.71;39.37;102136.56;5120226;27;45315;-55
2022/08/06 01:03:36;;;;;;;;;1.50;1.50;;;;;19.59;39.62;102120.72;5120124;27;45289;-58
2022/08/06 01:06:02;;;;;;;;;1.25;1.25;;;;;19.61;39.86;102116.00;5119656;27;47016;-52
2022/08/06 01:08:28;;;;;;;;;2.33;2.00;;;;;19.72;39.30;102136.41;5119802;27;45335;-59
2022/08/06 01:10:53;;;;;;;;;1.00;1.00;;;;;19.67;39.82;102139.59;5119873;27;45560;-57
2022/08/06 01:13:19;;;;;;;;;1.33;0.67;;;;;19.55;39.66;102113.13;5119861;27;45560;-58
2022/08/06 01:15:51;;;;;;;;;3.00;1.00;;;;;19.61;39.77;102140.31;5119589;27;46414;-57
2022/08/06 01:18:25;;;;;;;;;2.00;2.00;;;;;19.55;40.05;102132.00;5119720;27;45414;-57
2022/08/06 01:21:00;;;;;;;;;2.33;2.00;;;;;19.58;39.84;102143.31;5119764;27;45589;-57
2022/08/06 01:23:38;;;;;;;;;2.00;1.00;;;;;19.56;39.53;102137.25;5101119;27;45451;-54
2022/08/06 01:26:48;;;;;;;;;3.00;1.33;;;;;19.53;39.44;102142.16;5119401;27;47090;-55
2022/08/06 01:29:29;;;;;;;;;1.67;1.00;;;;;19.49;40.17;102148.91;5098319;27;45623;-58
2022/08/06 01:32:01;;;;;;;;;1.67;1.67;;;;;19.50;40.42;102147.88;5119457;27;45314;-59
2022/08/06 01:34:32;;;;;;;;;1.67;1.00;;;;;19.47;40.09;102140.13;5119679;27;45288;-57
2022/08/06 01:37:14;;;;;;;;;2.25;2.25;;;;;19.42;40.05;102148.72;5119006;27;46895;-56
2022/08/06 01:39:42;;;;;;;;;1.00;1.00;;;;;19.33;40.06;102147.91;5119231;27;45395;-60
2022/08/06 01:42:10;;;;;;;;;4.67;2.00;;;;;19.32;40.33;102142.69;5119243;27;45378;-53
2022/08/06 01:44:38;;;;;;;;;2.00;2.00;;;;;19.27;40.21;102156.69;5119311;27;45288;-58
2022/08/06 01:47:08;;;;;;;;;2.33;1.00;;;;;19.23;40.63;102147.25;5119065;27;47209;-53
2022/08/06 01:49:36;;;;;;;;;4.00;2.00;;;;;19.18;40.61;102141.53;5119108;27;45334;-56
2022/08/06 01:52:01;;;;;;;;;1.00;1.00;;;;;19.03;41.41;102133.25;5118813;27;45481;-53
2022/08/06 01:54:30;;;;;;;;;1.00;1.00;;;;;19.11;41.22;102146.75;5119434;27;45434;-58
2022/08/06 01:56:59;;;;;;;;;2.00;2.00;;;;;19.06;41.29;102143.72;5119015;27;46211;-56
2022/08/06 01:59:34;;;;;;;;;3.00;3.00;;;;;19.05;40.89;102147.44;5119179;27;45381;-54
2022/08/06 02:02:03;;;;;;;;;4.00;2.67;;;;;19.07;41.01;102152.66;5119133;27;45312;-59
2022/08/06 02:04:34;;;;;;;;;3.00;2.00;;;;;19.01;41.32;102161.41;5119078;27;45489;-55
2022/08/06 02:07:05;;;;;;;;;2.33;2.00;;;;;18.98;41.18;102165.28;5118397;27;45777;-58
2022/08/06 02:09:33;;;;;;;;;1.00;1.00;;;;;18.95;41.38;102158.34;5118209;27;45234;-59
2022/08/06 02:12:03;;;;;;;;;2.33;2.33;;;;;18.91;41.80;102154.31;5118756;27;45432;-56
2022/08/06 02:14:32;;;;;;;;;2.00;2.00;;;;;18.89;41.64;102158.19;5118991;27;45406;-56
2022/08/06 02:16:59;;;;;;;;;2.67;2.00;;;;;18.73;41.79;102132.06;5118502;27;47091;-58
2022/08/06 02:19:28;;;;;;;;;2.00;2.00;;;;;18.79;41.78;102150.25;5118447;27;45336;-57
2022/08/06 02:21:55;;;;;;;;;1.00;1.00;;;;;18.83;41.59;102151.59;5118658;27;45500;-51
2022/08/06 02:24:24;;;;;;;;;2.00;2.00;;;;;18.80;42.25;102151.97;5100217;27;45475;-59
2022/08/06 02:26:51;;;;;;;;;2.00;2.00;;;;;18.67;41.91;102136.25;5118398;27;47422;-57
2022/08/06 02:29:17;;;;;;;;;2.00;2.00;;;;;18.81;42.16;102147.41;5118569;27;45338;-59
2022/08/06 02:31:43;;;;;;;;;1.00;1.00;;;;;18.77;42.32;102148.75;5118634;27;45398;-57
2022/08/06 02:34:09;;;;;;;;;3.33;2.00;;;;;18.76;41.95;102147.06;5118595;27;45530;-53
2022/08/06 02:36:46;;;;;;;;;3.00;3.00;;;;;18.70;41.85;102153.94;5117805;27;46050;-57
2022/08/06 02:39:22;;;;;;;;;4.00;2.33;;;;;18.68;41.99;102156.78;5118391;27;45386;-59
2022/08/06 02:42:01;;;;;;;;;4.67;2.00;;;;;18.67;41.97;102154.25;5118470;27;45363;-58
2022/08/06 02:44:32;;;;;;;;;3.67;3.00;;;;;18.67;42.17;102160.50;5118405;27;45497;-59
2022/08/06 02:47:39;;;;;;;;;5.00;2.00;;;;;18.56;41.80;102143.78;5118172;27;47196;-54
2022/08/06 02:50:06;;;;;;;;;3.00;1.67;;;;;18.55;42.25;102142.94;5034844;28;45456;-57
2022/08/06 02:52:39;;;;;;;;;3.33;1.67;;;;;18.55;42.20;102144.81;5034851;28;45506;-55
2022/08/06 02:55:18;;;;;;;;;2.67;1.67;;;;;18.51;42.01;102143.44;5034934;28;45389;-53
2022/08/06 02:57:51;;;;;;;;;2.67;1.33;;;;;18.44;41.97;102137.84;5034330;28;46522;-52
2022/08/06 03:00:17;;;;;;;;;1.00;1.00;;;;;18.41;42.06;102139.06;5034351;28;45463;-58
2022/08/06 03:02:45;;;;;;;;;2.00;1.00;;;;;18.38;42.54;102127.75;5034831;28;45381;-55
2022/08/06 03:05:15;;;;;;;;;2.67;0.67;;;;;18.34;42.61;102124.53;5034703;28;45535;-53
2022/08/06 03:07:41;;;;;;;;;1.00;1.00;;;;;18.33;42.22;102135.47;5034185;28;46017;-59
2022/08/06 03:10:08;;;;;;;;;3.33;2.00;;;;;18.31;42.70;102132.94;5034331;28;45393;-49
2022/08/06 03:12:36;;;;;;;;;0.67;0.67;;;;;18.29;42.52;102134.97;5034584;28;45475;-57
2022/08/06 03:15:03;;;;;;;;;1.00;1.00;;;;;18.23;42.75;102126.69;5034761;28;45327;-57
2022/08/06 03:17:31;;;;;;;;;1.00;1.00;;;;;18.24;43.11;102133.75;5017378;28;46435;-52
2022/08/06 03:19:59;;;;;;;;;1.00;1.00;;;;;18.24;43.08;102131.91;5035992;28;45417;-59
2022/08/06 03:22:27;;;;;;;;;1.00;1.00;;;;;18.17;42.37;102123.66;5037680;28;45327;-58
2022/08/06 03:24:54;;;;;;;;;0.33;0.33;;;;;18.17;42.49;102133.56;5038110;28;45346;-56
2022/08/06 03:27:21;;;;;;;;;3.00;1.33;;;;;18.13;42.97;102124.97;5115620;27;45463;-55
2022/08/06 03:29:49;;;;;;;;;2.00;0.00;;;;;18.00;42.89;102119.19;5121445;27;45353;-60
2022/08/06 03:32:16;;;;;;;;;1.00;1.00;;;;;18.10;43.30;102132.53;5121484;27;45223;-59
2022/08/06 03:34:43;;;;;;;;;1.00;1.00;;;;;17.94;43.25;102114.44;5121374;27;45519;-59
2022/08/06 03:37:10;;;;;;;;;1.00;1.00;;;;;18.06;42.68;102140.09;5121212;27;45392;-59
2022/08/06 03:39:39;;;;;;;;;2.00;1.33;;;;;18.04;42.68;102139.41;5121078;27;45371;-60
2022/08/06 03:42:05;;;;;;;;;2.67;2.00;;;;;17.94;43.01;102125.22;5121233;27;45346;-59
2022/08/06 03:44:31;;;;;;;;;3.00;1.67;;;;;18.00;43.19;102143.44;5121126;27;45602;-59
2022/08/06 03:47:12;;;;;;;;;1.33;1.33;;;;;17.95;42.80;102143.09;5120958;27;45277;-54
2022/08/06 03:50:01;;;;;;;;;4.67;2.67;;;;;17.80;43.15;102123.16;5120713;27;45368;-56
2022/08/06 03:52:31;;;;;;;;;1.00;1.00;;;;;17.90;43.41;102145.38;5120995;27;45378;-60
2022/08/06 03:55:01;;;;;;;;;1.00;1.00;;;;;17.82;43.33;102131.88;5121234;27;45290;-59
2022/08/06 03:57:32;;;;;;;;;2.00;1.00;;;;;17.80;43.21;102131.22;5120345;27;45459;-59
2022/08/06 04:00:00;;;;;;;;;1.00;1.00;;;;;17.82;43.07;102140.81;5120758;27;45302;-58
2022/08/06 04:02:33;;;;;;;;;1.00;1.00;;;;;17.80;43.49;102134.75;5121195;27;45398;-58
2022/08/06 04:05:01;;;;;;;;;2.00;0.33;;;;;17.79;43.15;102137.63;5121091;27;45641;-56
2022/08/06 04:07:28;;;;;;;;;0.00;0.00;;;;;17.75;43.22;102141.63;5120490;27;47282;-57
2022/08/06 04:09:54;;;;;;;;;2.00;1.00;;;;;17.60;43.49;102123.31;5120887;27;45304;-53
2022/08/06 04:12:21;;;;;;;;;1.00;1.00;;;;;17.69;43.21;102140.38;5120733;27;45366;-58
2022/08/06 04:14:47;;;;;;;;;2.33;1.00;;;;;17.69;43.25;102141.19;5120870;27;45230;-57
2022/08/06 04:17:14;;;;;;;;;0.67;0.00;;;;;17.68;43.27;102141.38;5120496;27;46335;-51
2022/08/06 04:19:40;;;;;;;;;1.00;1.00;;;;;17.64;43.26;102140.00;5120363;27;45251;-56
2022/08/06 04:22:06;;;;;;;;;0.33;0.33;;;;;17.66;42.92;102149.63;5120704;27;45319;-59
2022/08/06 04:24:31;;;;;;;;;1.00;1.00;;;;;17.66;43.09;102154.16;5120688;27;45191;-59
2022/08/06 04:26:58;;;;;;;;;2.00;1.00;;;;;17.65;42.80;102157.84;5119718;27;45419;-59
2022/08/06 04:29:24;;;;;;;;;1.00;1.00;;;;;17.63;43.10;102163.38;5120397;27;45547;-60
2022/08/06 04:31:51;;;;;;;;;1.00;1.00;;;;;17.59;42.66;102153.94;5119813;27;45294;-59
2022/08/06 04:34:25;;;;;;;;;1.00;1.00;;;;;17.60;42.72;102162.84;5120681;27;45239;-57
2022/08/06 04:36:52;;;;;;;;;1.00;1.00;;;;;17.58;42.70;102157.63;5119933;27;46181;-59
2022/08/06 04:39:18;;;;;;;;;0.00;0.00;;;;;17.57;42.43;102168.53;5120196;27;45426;-57
2022/08/06 04:41:44;;;;;;;;;2.00;1.67;;;;;17.52;42.47;102166.31;5120473;27;45397;-51
2022/08/06 04:44:11;;;;;;;;;0.33;0.33;;;;;17.53;42.25;102170.72;5120647;27;45161;-57
2022/08/06 04:46:37;;;;;;;;;1.67;1.67;;;;;17.49;42.13;102169.34;5120188;27;46205;-54
2022/08/06 04:49:03;;;;;;;;;0.67;0.67;;;;;17.54;42.25;102180.47;5120242;27;45261;-57
2022/08/06 04:51:29;;;;;;;;;1.67;0.33;;;;;17.49;42.72;102180.13;5119877;27;45606;-60
2022/08/06 04:53:54;;;;;;;;;1.00;1.00;;;;;17.49;42.71;102184.63;5120177;27;45346;-56
2022/08/06 04:56:20;;;;;;;;;0.67;0.67;;;;;17.48;42.66;102188.31;5119513;27;46233;-58
2022/08/06 04:58:45;;;;;;;;;0.00;0.00;;;;;17.48;42.62;102199.94;5120077;27;45485;-55
2022/08/06 05:01:11;;;;;;;;;0.00;0.00;;;;;17.45;43.09;102200.25;5120147;27;45356;-54
2022/08/06 05:03:37;;;;;;;;;1.00;1.00;;;;;17.41;42.97;102191.66;5120055;27;45401;-56
2022/08/06 05:06:08;;;;;;;;;1.00;1.00;;;;;17.44;42.45;102194.03;5119769;27;47147;-54
2022/08/06 05:08:38;;;;;;;;;2.67;1.00;;;;;17.42;42.66;102192.50;5119865;27;45480;-54
2022/08/06 05:11:15;;;;;;;;;2.67;0.00;;;;;17.31;42.84;102173.91;5120118;27;45465;-55
2022/08/06 05:13:44;;;;;;;;;0.67;0.67;;;;;17.43;43.04;102196.88;5119767;27;45406;-52
2022/08/06 05:16:12;;;;;;;;;5.00;1.33;;;;;17.45;43.01;102200.25;5119537;27;47344;-55
2022/08/06 05:18:49;;;;;;;;;1.00;0.67;;;;;17.45;42.62;102203.78;5119599;27;45338;-59
2022/08/06 05:21:20;;;;;;;;;1.00;1.00;;;;;17.45;42.62;102205.66;5118946;27;45461;-57
2022/08/06 05:23:49;;;;;;;;;1.67;1.00;;;;;17.45;43.16;102211.03;5119858;27;45431;-59
2022/08/06 05:26:15;;;;;;;;;1.33;0.33;;;;;17.45;42.73;102203.78;5119388;27;46211;-56
2022/08/06 05:28:41;;;;;;;;;1.67;1.33;;;;;17.46;42.96;102216.22;5119337;27;45254;-60
2022/08/06 05:31:07;;;;;;;;;2.00;1.67;;;;;17.46;42.42;102218.94;5119869;27;45225;-59
2022/08/06 05:33:38;;;;;;;;;0.33;0.33;;;;;17.44;42.67;102230.84;5119471;27;45338;-60
2022/08/06 05:36:11;;;;;;;;;3.00;1.00;;;;;17.42;42.64;102217.53;5118854;27;46329;-55
2022/08/06 05:38:39;;;;;;;;;0.67;0.67;;;;;17.44;42.39;102215.56;5119128;27;45406;-50
2022/08/06 05:41:06;;;;;;;;;2.33;1.00;;;;;17.44;42.57;102214.69;5119497;27;45280;-57
2022/08/06 05:43:31;;;;;;;;;1.67;1.00;;;;;17.45;43.10;102216.41;5118069;27;45375;-61
2022/08/06 05:46:03;;;;;;;;;0.67;0.67;;;;;17.43;42.77;102213.84;5119041;27;45967;-60
2022/08/06 05:48:35;;;;;;;;;2.00;2.00;;;;;17.52;42.75;102220.13;5119102;27;45463;-58
2022/08/06 05:51:09;;;;;;;;;1.00;1.00;;;;;17.51;42.66;102215.75;5119272;27;45491;-56
2022/08/06 05:53:50;;;;;;;;;0.33;0.33;;;;;17.48;42.88;102215.22;5119529;27;45357;-56
2022/08/06 05:56:28;;;;;;;;;1.33;0.67;;;;;17.55;43.13;102232.44;5119074;27;46308;-60
2022/08/06 05:58:57;;;;;;;;;1.00;1.00;;;;;17.59;43.17;102218.53;5119011;27;45527;-55
2022/08/06 06:01:24;;;;;;;;;3.00;0.00;;;;;17.60;42.94;102224.75;5119105;27;45444;-51
2022/08/06 06:03:53;;;;;;;;;0.67;0.67;;;;;17.62;42.72;102222.75;5119553;27;45319;-57
2022/08/06 06:06:20;;;;;;;;;0.00;0.00;;;;;17.61;42.52;102226.41;5119118;27;47056;-59
2022/08/06 06:08:46;;;;;;;;;1.00;1.00;;;;;17.64;42.44;102236.88;5119068;27;45498;-59
2022/08/06 06:11:12;;;;;;;;;1.00;1.00;;;;;17.56;42.73;102216.13;5119025;27;45478;-57
2022/08/06 06:13:41;;;;;;;;;2.00;0.00;;;;;17.67;42.68;102232.03;5119011;27;45325;-58
2022/08/06 06:16:26;;;;;;;;;0.00;0.00;;;;;17.67;42.50;102232.03;5117927;27;46326;-59
2022/08/06 06:19:03;;;;;;;;;2.00;2.00;;;;;17.68;42.52;102227.50;5118580;27;45285;-57
2022/08/06 06:21:45;;;;;;;;;2.33;1.00;;;;;17.71;42.66;102219.13;5118698;27;45432;-60
2022/08/06 06:24:31;;;;;;;;;2.33;1.33;;;;;17.74;42.57;102229.59;5118785;27;45210;-53
2022/08/06 06:27:00;;;;;;;;;5.00;2.00;;;;;17.76;42.52;102229.44;5118521;27;45456;-60
2022/08/06 06:29:43;;;;;;;;;3.00;1.33;;;;;17.81;42.36;102232.50;5118278;27;45426;-60
2022/08/06 06:32:36;;;;;;;;;1.00;1.00;;;;;17.82;42.71;102221.56;5118474;27;45435;-60
2022/08/06 06:35:32;;;;;;;;;3.00;0.00;;;;;17.86;42.34;102236.38;5118503;27;45356;-57
2022/08/06 06:38:25;;;;;;;;;2.00;2.00;;;;;17.89;42.47;102230.69;5118568;27;46102;-49
2022/08/06 06:41:23;;;;;;;;;2.00;1.00;;;;;17.90;42.05;102229.69;5118500;27;45362;-58
2022/08/06 06:44:05;;;;;;;;;3.00;1.33;;;;;17.97;42.15;102238.00;5118455;27;45255;-50
2022/08/06 06:46:46;;;;;;;;;3.00;1.33;;;;;18.06;42.04;102231.63;5118637;27;45566;-54
2022/08/06 06:49:18;;;;;;;;;1.67;1.67;;;;;18.13;41.64;102240.78;5118403;27;46502;-54
2022/08/06 06:51:49;;;;;;;;;2.67;1.00;;;;;18.16;41.80;102232.38;5118841;27;45184;-58
2022/08/06 06:54:24;;;;;;;;;1.33;1.33;;;;;18.28;41.67;102241.00;5117641;27;45345;-56
2022/08/06 06:56:52;;;;;;;;;1.67;0.00;;;;;18.39;41.44;102246.13;5118612;27;45335;-57
2022/08/06 06:59:24;;;;;;;;;1.00;1.00;;;;;18.57;41.35;102245.19;5099510;27;46068;-58
2022/08/06 07:01:53;;;;;;;;;1.00;1.00;;;;;18.67;40.91;102227.88;5118074;27;45311;-59
2022/08/06 07:04:20;;;;;;;;;0.00;0.00;;;;;19.02;40.25;102233.22;5119184;27;45429;-60
2022/08/06 07:06:48;;;;;;;;;1.00;1.00;;;;;19.43;39.60;102243.03;5118734;27;45428;-58
2022/08/06 07:09:17;;;;;;;;;1.67;1.67;;;;;19.89;39.10;102247.94;5117898;27;46085;-60
2022/08/06 07:11:48;;;;;;;;;0.00;0.00;;;;;20.42;38.24;102249.97;5118237;27;45207;-58
2022/08/06 07:14:15;;;;;;;;;0.75;0.75;;;;;20.80;38.29;102236.63;5118158;27;45432;-59
2022/08/06 07:16:42;;;;;;;;;3.00;1.00;;;;;21.35;37.08;102251.00;5118489;27;45342;-60
2022/08/06 07:19:09;;;;;;;;;1.00;1.00;;;;;21.74;36.27;102239.16;5117643;27;46000;-55
2022/08/06 07:21:36;;;;;;;;;0.00;0.00;;;;;22.29;36.33;102249.63;5118010;27;45742;-61
2022/08/06 07:24:02;;;;;;;;;0.00;0.00;;;;;22.76;33.97;102247.50;5118291;27;45448;-53
2022/08/06 07:26:29;;;;;;;;;0.00;0.00;;;;;23.18;33.96;102265.75;5118051;27;45340;-57
2022/08/06 07:28:57;;;;;;;;;1.75;1.00;;;;;23.60;33.07;102258.63;5117599;27;45326;-58
2022/08/06 07:31:26;;;;;;;;;0.40;0.20;;;;;24.09;32.82;102266.72;5117849;27;45383;-59
2022/08/06 07:33:52;;;;;;;;;0.00;0.00;;;;;24.74;30.54;102261.03;5117824;27;45324;-60
2022/08/06 07:36:21;;;;;;;;;1.00;1.00;;;;;25.43;31.94;102252.59;5117866;27;45358;-57
2022/08/06 07:38:48;;;;;;;;;1.60;0.80;;;;;26.35;28.86;102259.84;5117397;27;46005;-60
2022/08/06 07:41:16;;;;;;;;;1.00;1.00;;;;;28.72;25.95;102259.28;5117385;27;45201;-58
2022/08/06 07:43:57;;;;;;;;;0.80;0.80;;;;;31.11;26.30;102260.47;5117790;27;45349;-57
2022/08/06 07:46:28;;;;;;;;;0.00;0.00;;;;;32.66;22.41;102255.13;5118099;27;45508;-59
2022/08/06 07:48:58;;;;;;;;;0.80;0.80;;;;;34.01;22.46;102255.78;5117359;27;45441;-55
2022/08/06 07:51:29;;;;;;;;;0.00;0.00;;;;;34.90;19.75;102251.13;5117541;27;45409;-59
2022/08/06 07:53:56;;;;;;;;;0.20;0.20;;;;;35.82;18.94;102259.44;5117430;27;45402;-59
2022/08/06 07:56:22;;;;;;;;;2.60;0.00;;;;;36.67;17.27;102250.28;5117742;27;45385;-57
2022/08/06 07:58:49;;;;;;;;;5.00;0.00;;;;;37.79;16.29;102241.03;5117122;27;45320;-57
2022/08/06 08:01:14;;;;;;;;;0.00;0.00;;;;;38.48;16.42;102241.63;5117523;27;45304;-59
2022/08/06 08:06:26;;;;;;;;;0.00;0.00;;;;;40.56;17.43;102246.53;5118748;27;45302;-58
2022/08/06 08:09:10;;;;;;;;;0.40;0.40;;;;;41.41;15.31;102246.69;5120694;27;45380;-57
2022/08/06 08:11:40;;;;;;;;;0.00;0.00;;;;;41.85;14.50;102248.56;5120864;27;45453;-53
2022/08/06 08:14:09;;;;;;;;;0.20;0.20;;;;;42.73;12.60;102234.44;5120626;27;45474;-55
2022/08/06 08:16:35;;;;;;;;;1.00;0.60;;;;;43.81;13.67;102243.56;5120817;27;45230;-55
2022/08/06 08:19:01;;;;;;;;;0.00;0.00;;;;;44.05;12.11;102245.78;5119674;27;45481;-58
2022/08/06 08:21:27;;;;;;;;;0.00;0.00;;;;;44.38;13.59;102256.31;5120437;27;45318;-58
2022/08/06 08:23:53;;;;;;;;;0.00;0.00;;;;;44.78;12.85;102256.63;5120598;27;45330;-57
2022/08/06 08:26:19;;;;;;;;;0.20;0.00;;;;;44.84;11.79;102259.22;5120709;27;45311;-58
2022/08/06 08:28:44;;;;;;;;;0.00;0.00;;;;;44.77;12.17;102255.00;5120483;27;46353;-59
2022/08/06 08:31:13;;;;;;;;;1.75;1.00;;;;;44.64;11.12;102247.69;5120499;27;45337;-60
2022/08/06 08:33:39;;;;;;;;;0.00;0.00;;;;;45.49;12.30;102249.16;5119674;27;45165;-58
2022/08/06 08:36:05;;;;;;;;;0.00;0.00;;;;;45.35;10.76;102254.28;5120547;27;45214;-56
2022/08/06 08:38:32;;;;;;;;;0.00;0.00;;;;;45.45;9.93;102249.03;5120105;27;46114;-59
2022/08/06 08:41:04;;;;;;;;;3.20;1.60;;;;;45.97;11.85;102245.56;5120164;27;45161;-58
2022/08/06 08:43:36;;;;;;;;;1.00;1.00;;;;;45.50;10.60;102242.38;5120502;27;45228;-60
2022/08/06 08:46:03;;;;;;;;;1.60;1.60;;;;;45.40;10.13;102248.44;5120533;27;45218;-58
2022/08/06 08:48:30;;;;;;;;;0.80;0.80;;;;;45.28;10.39;102258.47;5119863;27;46365;-59
2022/08/06 08:50:58;;;;;;;;;0.00;0.00;;;;;45.41;10.08;102252.88;5120176;27;45444;-53
2022/08/06 08:53:37;;;;;;;;;0.00;0.00;;;;;45.77;9.94;102241.69;5120078;27;45380;-57
2022/08/06 08:56:05;;;;;;;;;0.20;0.20;;;;;46.22;9.31;102240.72;5120350;27;45350;-59
2022/08/06 08:58:36;;;;;;;;;0.40;0.40;;;;;46.22;9.50;102235.09;5119754;27;45871;-59
2022/08/06 09:01:04;;;;;;;;;0.00;0.00;;;;;46.18;9.50;102233.38;5119922;27;45251;-57
2022/08/06 09:03:32;;;;;;;;;0.00;0.00;;;;;46.41;9.66;102233.66;5120043;27;45413;-56
2022/08/06 09:05:57;;;;;;;;;0.00;0.00;;;;;46.95;9.82;102236.06;5120238;27;45378;-52
2022/08/06 09:08:23;;;;;;;;;0.00;0.00;;;;;47.35;8.60;102230.31;5119640;27;46202;-56
2022/08/06 09:10:49;;;;;;;;;0.50;0.50;;;;;46.95;7.82;102241.72;5119563;27;45178;-54
2022/08/06 09:13:14;;;;;;;;;0.20;0.20;;;;;47.47;8.47;102220.94;5119986;27;45314;-59
2022/08/06 09:15:40;;;;;;;;;0.00;0.00;;;;;47.80;8.84;102229.03;5120147;27;45228;-57
2022/08/06 09:18:05;;;;;;;;;0.25;0.00;;;;;47.88;8.47;102228.00;5119290;27;46333;-56
2022/08/06 09:20:31;;;;;;;;;0.00;0.00;;;;;47.85;9.05;102227.94;5119680;27;45356;-58
2022/08/06 09:22:57;;;;;;;;;0.00;0.00;;;;;48.10;8.43;102239.81;5119708;27;45291;-57
2022/08/06 09:25:37;;;;;;;;;0.00;0.00;;;;;47.91;8.14;102240.53;5119769;27;45497;-58
2022/08/06 09:28:08;;;;;;;;;0.00;0.00;;;;;48.06;7.34;102242.56;5119564;27;46942;-59
2022/08/06 09:30:33;;;;;;;;;0.00;0.00;;;;;48.13;8.20;102248.38;5100916;27;45326;-56
2022/08/06 09:32:59;;;;;;;;;0.00;0.00;;;;;47.73;8.06;102251.41;5119813;27;45368;-53
2022/08/06 09:35:25;;;;;;;;;0.00;0.00;;;;;47.69;8.61;102254.16;5119471;27;45271;-56
2022/08/06 09:38:03;;;;;;;;;0.00;0.00;;;;;48.02;7.17;102243.63;5119431;27;47241;-53
2022/08/06 09:40:29;;;;;;;;;0.00;0.00;;;;;48.55;8.32;102235.53;5119258;27;45453;-56
2022/08/06 09:42:54;;;;;;;;;1.00;1.00;;;;;48.22;7.59;102253.78;5119499;27;45321;-56
2022/08/06 09:45:21;;;;;;;;;0.00;0.00;;;;;48.37;7.92;102250.06;5119539;27;45472;-58
2022/08/06 09:48:04;;;;;;;;;2.00;0.00;;;;;48.43;8.14;102247.81;5119124;27;46510;-57
2022/08/06 09:50:41;;;;;;;;;1.60;0.00;;;;;48.62;7.64;102190.50;5119189;27;45327;-58
2022/08/06 09:53:07;;;;;;;;;0.00;0.00;;;;;49.19;8.11;102242.50;5118985;27;45334;-57
2022/08/06 09:55:33;;;;;;;;;0.00;0.00;;;;;48.61;8.29;102234.88;5119272;27;45299;-60
2022/08/06 09:57:59;;;;;;;;;0.75;0.00;;;;;48.45;7.81;102234.97;5119174;27;45237;-57
2022/08/06 10:00:31;;;;;;;;;0.00;0.00;;;;;48.52;7.85;102239.13;5119154;27;45457;-54
2022/08/06 10:03:02;;;;;;;;;0.40;0.00;;;;;48.23;7.50;102242.13;5119175;27;45241;-59
2022/08/06 10:05:28;;;;;;;;;0.00;0.00;;;;;48.22;7.79;102243.31;5119359;27;45301;-58
2022/08/06 10:08:10;;;;;;;;;0.00;0.00;;;;;48.01;8.05;102231.53;5118769;27;46260;-56
2022/08/06 10:10:50;;;;;;;;;0.00;0.00;;;;;47.77;8.01;102228.94;5118761;27;45330;-57
2022/08/06 10:13:23;;;;;;;;;0.00;0.00;;;;;47.60;7.93;102228.13;5119255;27;45439;-58
2022/08/06 10:15:49;;;;;;;;;0.00;0.00;;;;;47.42;7.80;102222.03;5119237;27;45294;-55
2022/08/06 10:18:29;;;;;;;;;0.00;0.00;;;;;47.55;7.75;102245.31;5118789;27;45429;-56
2022/08/06 10:21:22;;;;;;;;;0.00;0.00;;;;;47.74;8.02;102234.13;5118818;27;45235;-54
2022/08/06 10:24:02;;;;;;;;;0.00;0.00;;;;;47.87;7.70;102239.66;5115667;27;45406;-58
2022/08/06 10:26:31;;;;;;;;;0.00;0.00;;;;;47.92;7.93;102236.56;5118880;27;45337;-56
2022/08/06 10:29:05;;;;;;;;;0.00;0.00;;;;;47.60;7.54;102232.94;5117375;27;46612;-55
2022/08/06 10:31:32;;;;;;;;;0.40;0.00;;;;;47.40;7.75;102220.75;5118762;27;45447;-59
2022/08/06 10:34:10;;;;;;;;;0.00;0.00;;;;;47.54;7.64;102214.66;5118923;27;45344;-58
2022/08/06 10:36:50;;;;;;;;;1.80;0.00;;;;;47.19;7.62;102212.53;5118720;27;45465;-52
2022/08/06 10:39:20;;;;;;;;;0.20;0.20;;;;;47.25;7.79;102203.47;5118594;27;46160;-54
2022/08/06 10:41:45;;;;;;;;;0.00;0.00;;;;;47.39;8.04;102219.13;5118451;27;45656;-54
2022/08/06 10:44:12;;;;;;;;;1.00;0.75;;;;;47.20;7.56;102202.91;5118701;27;45324;-55
2022/08/06 10:46:37;;;;;;;;;1.00;0.80;;;;;47.45;7.66;102212.88;5118712;27;45377;-56
2022/08/06 10:49:05;;;;;;;;;0.00;0.00;;;;;47.23;8.22;102219.09;5118010;27;45838;-58
2022/08/06 10:51:32;;;;;;;;;0.80;0.80;;;;;46.52;7.33;102209.44;5118299;27;45410;-54
2022/08/06 10:53:57;;;;;;;;;1.40;1.40;;;;;46.64;8.25;102206.63;5118457;27;45426;-61
2022/08/06 10:56:26;;;;;;;;;0.00;0.00;;;;;46.53;7.65;102206.28;5118429;27;45241;-52
2022/08/06 10:58:52;;;;;;;;;3.00;0.20;;;;;46.44;8.51;102210.41;5118162;27;46538;-57
2022/08/06 11:01:32;;;;;;;;;0.60;0.60;;;;;46.46;7.85;102194.00;5118400;27;45490;-60
2022/08/06 11:04:13;;;;;;;;;3.40;1.40;;;;;45.96;8.04;102209.34;5118364;27;45339;-57
2022/08/06 11:07:09;;;;;;;;;1.20;1.20;;;;;45.54;7.75;102195.53;5118450;27;45397;-56
2022/08/06 11:10:06;;;;;;;;;2.60;2.20;;;;;45.44;7.77;102193.19;5117418;27;45373;-57
2022/08/06 11:12:46;;;;;;;;;2.00;0.80;;;;;45.42;8.25;102190.72;5117606;27;45297;-55
2022/08/06 11:15:12;;;;;;;;;1.40;1.20;;;;;44.84;8.25;102198.31;5118142;27;45321;-55
2022/08/06 11:17:47;;;;;;;;;2.00;2.00;;;;;44.48;8.35;102196.13;5118518;27;45348;-60
2022/08/06 11:20:36;;;;;;;;;2.00;2.00;;;;;44.12;8.75;102189.13;5117971;27;45900;-60
2022/08/06 11:23:13;;;;;;;;;1.40;1.40;;;;;43.43;8.70;102181.91;5118061;27;45371;-59
2022/08/06 11:25:47;;;;;;;;;2.00;2.00;;;;;43.06;8.79;102177.91;5118051;27;45460;-59
2022/08/06 11:28:16;;;;;;;;;1.00;1.00;;;;;42.59;8.98;102181.41;5118315;27;45215;-58
2022/08/06 11:30:45;;;;;;;;;1.00;1.00;;;;;41.70;9.31;102190.28;5117041;27;45406;-58
2022/08/06 11:33:13;;;;;;;;;1.60;1.60;;;;;41.03;9.48;102177.31;5117763;27;45417;-59
2022/08/06 11:35:41;;;;;;;;;0.80;0.80;;;;;40.44;10.16;102171.72;5117274;27;45437;-59
2022/08/06 11:38:09;;;;;;;;;3.00;1.60;;;;;38.77;11.18;102173.84;5117831;27;45387;-60
2022/08/06 11:41:01;;;;;;;;;1.40;1.40;;;;;36.64;12.04;102173.22;5118909;27;46198;-60
2022/08/06 11:44:02;;;;;;;;;0.80;0.80;;;;;35.09;13.33;102165.69;5121187;27;45432;-59